sensor_id;sensor_type;location;lat;lon;timestamp;P1;durP1;ratioP1;P2;durP2;ratioP2
8399;SDS011;4237;47.030;15.396;2023-03-25T00:01:13;1.90;;;0.40;;
8399;SDS011;4237;47.030;15.396;2023-03-25T00:03:44;1.37;;;0.50;;
8399;SDS011;4237;47.030;15.396;2023-03-25T00:06:14;6.03;;;0.77;;
8399;SDS011;4237;47.030;15.396;2023-03-25T00:08:43;0.50;;;0.40;;
8399;SDS011;4237;47.030;15.396;2023-03-25T00:11:12;1.50;;;0.33;;
8399;SDS011;4237;47.030;15.396;2023-03-25T00:13:41;0.97;;;0.40;;
8399;SDS011;4237;47.030;15.396;2023-03-25T00:16:10;4.37;;;0.40;;
8399;SDS011;4237;47.030;15.396;2023-03-25T00:18:39;0.63;;;0.30;;
8399;SDS011;4237;47.030;15.396;2023-03-25T00:21:08;0.43;;;0.33;;
8399;SDS011;4237;47.030;15.396;2023-03-25T00:23:37;0.63;;;0.40;;
8399;SDS011;4237;47.030;15.396;2023-03-25T00:26:07;0.30;;;0.30;;
8399;SDS011;4237;47.030;15.396;2023-03-25T00:28:36;4.23;;;0.40;;
8399;SDS011;4237;47.030;15.396;2023-03-25T00:31:07;0.40;;;0.40;;
8399;SDS011;4237;47.030;15.396;2023-03-25T00:33:37;0.43;;;0.30;;
8399;SDS011;4237;47.030;15.396;2023-03-25T00:36:09;1.27;;;0.50;;
8399;SDS011;4237;47.030;15.396;2023-03-25T00:38:40;0.93;;;0.43;;
8399;SDS011;4237;47.030;15.396;2023-03-25T00:43:51;0.40;;;0.40;;
8399;SDS011;4237;47.030;15.396;2023-03-25T00:46:21;1.17;;;0.70;;
8399;SDS011;4237;47.030;15.396;2023-03-25T00:48:52;2.70;;;1.00;;
8399;SDS011;4237;47.030;15.396;2023-03-25T00:51:21;1.73;;;1.33;;
8399;SDS011;4237;47.030;15.396;2023-03-25T00:53:53;2.87;;;2.17;;
8399;SDS011;4237;47.030;15.396;2023-03-25T00:56:25;0.90;;;0.90;;
8399;SDS011;4237;47.030;15.396;2023-03-25T00:58:55;1.10;;;0.80;;
8399;SDS011;4237;47.030;15.396;2023-03-25T01:01:24;0.50;;;0.50;;
8399;SDS011;4237;47.030;15.396;2023-03-25T01:03:55;1.70;;;0.80;;
8399;SDS011;4237;47.030;15.396;2023-03-25T01:06:26;0.73;;;0.60;;
8399;SDS011;4237;47.030;15.396;2023-03-25T01:08:58;3.50;;;1.50;;
8399;SDS011;4237;47.030;15.396;2023-03-25T01:11:28;12.17;;;5.07;;
8399;SDS011;4237;47.030;15.396;2023-03-25T01:14:01;17.70;;;8.37;;
8399;SDS011;4237;47.030;15.396;2023-03-25T01:16:31;15.23;;;7.90;;
8399;SDS011;4237;47.030;15.396;2023-03-25T01:19:00;10.60;;;5.00;;
8399;SDS011;4237;47.030;15.396;2023-03-25T01:21:29;34.23;;;12.97;;
8399;SDS011;4237;47.030;15.396;2023-03-25T01:24:00;25.77;;;9.83;;
8399;SDS011;4237;47.030;15.396;2023-03-25T01:26:29;19.57;;;7.83;;
8399;SDS011;4237;47.030;15.396;2023-03-25T01:28:58;20.63;;;9.13;;
8399;SDS011;4237;47.030;15.396;2023-03-25T01:31:27;4.50;;;2.50;;
8399;SDS011;4237;47.030;15.396;2023-03-25T01:33:56;5.97;;;0.67;;
8399;SDS011;4237;47.030;15.396;2023-03-25T01:36:26;1.67;;;0.90;;
8399;SDS011;4237;47.030;15.396;2023-03-25T01:39:00;1.23;;;0.90;;
8399;SDS011;4237;47.030;15.396;2023-03-25T01:41:28;1.67;;;1.17;;
8399;SDS011;4237;47.030;15.396;2023-03-25T01:45:10;2.90;;;1.03;;
8399;SDS011;4237;47.030;15.396;2023-03-25T01:46:50;0.87;;;0.63;;
8399;SDS011;4237;47.030;15.396;2023-03-25T01:49:26;1.83;;;1.00;;
8399;SDS011;4237;47.030;15.396;2023-03-25T01:52:17;5.03;;;1.00;;
8399;SDS011;4237;47.030;15.396;2023-03-25T01:54:42;1.17;;;0.90;;
8399;SDS011;4237;47.030;15.396;2023-03-25T01:57:13;1.10;;;1.00;;
8399;SDS011;4237;47.030;15.396;2023-03-25T01:59:45;3.27;;;1.07;;
8399;SDS011;4237;47.030;15.396;2023-03-25T02:02:14;4.73;;;0.87;;
8399;SDS011;4237;47.030;15.396;2023-03-25T02:04:50;2.40;;;1.20;;
8399;SDS011;4237;47.030;15.396;2023-03-25T02:07:30;2.43;;;1.40;;
8399;SDS011;4237;47.030;15.396;2023-03-25T02:10:00;1.10;;;0.70;;
8399;SDS011;4237;47.030;15.396;2023-03-25T02:12:31;0.60;;;0.60;;
8399;SDS011;4237;47.030;15.396;2023-03-25T02:15:00;0.87;;;0.70;;
8399;SDS011;4237;47.030;15.396;2023-03-25T02:20:31;1.97;;;0.90;;
8399;SDS011;4237;47.030;15.396;2023-03-25T02:28:53;1.47;;;1.00;;
8399;SDS011;4237;47.030;15.396;2023-03-25T02:39:19;1.03;;;0.73;;
8399;SDS011;4237;47.030;15.396;2023-03-25T02:42:00;0.80;;;0.80;;
8399;SDS011;4237;47.030;15.396;2023-03-25T02:44:39;3.43;;;1.03;;
8399;SDS011;4237;47.030;15.396;2023-03-25T02:47:14;2.00;;;0.83;;
8399;SDS011;4237;47.030;15.396;2023-03-25T02:49:49;1.27;;;0.87;;
8399;SDS011;4237;47.030;15.396;2023-03-25T02:54:53;0.70;;;0.70;;
8399;SDS011;4237;47.030;15.396;2023-03-25T02:57:27;1.13;;;0.60;;
8399;SDS011;4237;47.030;15.396;2023-03-25T02:59:58;0.80;;;0.80;;
8399;SDS011;4237;47.030;15.396;2023-03-25T03:02:28;0.90;;;0.80;;
8399;SDS011;4237;47.030;15.396;2023-03-25T03:05:00;2.73;;;0.80;;
8399;SDS011;4237;47.030;15.396;2023-03-25T03:07:32;0.60;;;0.60;;
8399;SDS011;4237;47.030;15.396;2023-03-25T03:12:51;0.70;;;0.70;;
8399;SDS011;4237;47.030;15.396;2023-03-25T03:18:13;0.77;;;0.63;;
8399;SDS011;4237;47.030;15.396;2023-03-25T03:20:54;1.47;;;1.10;;
8399;SDS011;4237;47.030;15.396;2023-03-25T03:23:31;1.83;;;1.10;;
8399;SDS011;4237;47.030;15.396;2023-03-25T03:26:03;0.83;;;0.83;;
8399;SDS011;4237;47.030;15.396;2023-03-25T03:28:34;1.00;;;0.80;;
8399;SDS011;4237;47.030;15.396;2023-03-25T03:33:52;1.20;;;1.10;;
8399;SDS011;4237;47.030;15.396;2023-03-25T03:36:25;1.17;;;1.07;;
8399;SDS011;4237;47.030;15.396;2023-03-25T03:39:00;3.77;;;1.33;;
8399;SDS011;4237;47.030;15.396;2023-03-25T03:41:32;1.50;;;0.93;;
8399;SDS011;4237;47.030;15.396;2023-03-25T03:44:07;2.33;;;1.17;;
8399;SDS011;4237;47.030;15.396;2023-03-25T03:46:44;1.00;;;1.00;;
8399;SDS011;4237;47.030;15.396;2023-03-25T03:49:22;1.50;;;1.00;;
8399;SDS011;4237;47.030;15.396;2023-03-25T03:52:00;2.03;;;1.43;;
8399;SDS011;4237;47.030;15.396;2023-03-25T03:54:43;1.30;;;1.20;;
8399;SDS011;4237;47.030;15.396;2023-03-25T03:57:21;1.37;;;1.27;;
8399;SDS011;4237;47.030;15.396;2023-03-25T04:00:06;2.20;;;1.43;;
8399;SDS011;4237;47.030;15.396;2023-03-25T04:02:48;1.67;;;1.30;;
8399;SDS011;4237;47.030;15.396;2023-03-25T04:05:39;5.97;;;1.50;;
8399;SDS011;4237;47.030;15.396;2023-03-25T04:08:24;1.87;;;1.50;;
8399;SDS011;4237;47.030;15.396;2023-03-25T04:10:55;2.00;;;1.20;;
8399;SDS011;4237;47.030;15.396;2023-03-25T04:13:42;4.00;;;1.47;;
8399;SDS011;4237;47.030;15.396;2023-03-25T04:16:13;1.63;;;1.50;;
8399;SDS011;4237;47.030;15.396;2023-03-25T04:18:42;7.93;;;5.40;;
8399;SDS011;4237;47.030;15.396;2023-03-25T04:21:12;6.17;;;3.10;;
8399;SDS011;4237;47.030;15.396;2023-03-25T04:23:43;4.77;;;2.70;;
8399;SDS011;4237;47.030;15.396;2023-03-25T04:26:12;5.50;;;3.43;;
8399;SDS011;4237;47.030;15.396;2023-03-25T04:28:41;7.67;;;4.53;;
8399;SDS011;4237;47.030;15.396;2023-03-25T04:31:12;27.27;;;18.40;;
8399;SDS011;4237;47.030;15.396;2023-03-25T04:33:43;15.60;;;9.80;;
8399;SDS011;4237;47.030;15.396;2023-03-25T04:36:16;9.80;;;5.57;;
8399;SDS011;4237;47.030;15.396;2023-03-25T04:38:45;6.30;;;4.03;;
8399;SDS011;4237;47.030;15.396;2023-03-25T04:41:14;11.73;;;7.93;;
8399;SDS011;4237;47.030;15.396;2023-03-25T04:43:43;7.60;;;5.57;;
8399;SDS011;4237;47.030;15.396;2023-03-25T04:46:12;5.73;;;3.80;;
8399;SDS011;4237;47.030;15.396;2023-03-25T04:48:42;2.67;;;2.43;;
8399;SDS011;4237;47.030;15.396;2023-03-25T04:51:12;4.13;;;2.70;;
8399;SDS011;4237;47.030;15.396;2023-03-25T04:53:41;2.47;;;1.93;;
8399;SDS011;4237;47.030;15.396;2023-03-25T04:56:16;3.20;;;2.20;;
8399;SDS011;4237;47.030;15.396;2023-03-25T04:58:45;2.70;;;2.50;;
8399;SDS011;4237;47.030;15.396;2023-03-25T05:01:18;2.20;;;2.00;;
8399;SDS011;4237;47.030;15.396;2023-03-25T05:03:57;2.13;;;1.90;;
8399;SDS011;4237;47.030;15.396;2023-03-25T05:06:36;4.10;;;1.70;;
8399;SDS011;4237;47.030;15.396;2023-03-25T05:09:08;1.30;;;1.07;;
8399;SDS011;4237;47.030;15.396;2023-03-25T05:11:42;3.63;;;1.13;;
8399;SDS011;4237;47.030;15.396;2023-03-25T05:14:12;1.57;;;1.47;;
8399;SDS011;4237;47.030;15.396;2023-03-25T05:16:43;2.10;;;1.63;;
8399;SDS011;4237;47.030;15.396;2023-03-25T05:19:13;2.10;;;1.90;;
8399;SDS011;4237;47.030;15.396;2023-03-25T05:21:44;1.53;;;1.43;;
8399;SDS011;4237;47.030;15.396;2023-03-25T05:24:14;2.93;;;1.40;;
8399;SDS011;4237;47.030;15.396;2023-03-25T05:26:43;2.07;;;1.30;;
8399;SDS011;4237;47.030;15.396;2023-03-25T05:29:12;1.87;;;1.10;;
8399;SDS011;4237;47.030;15.396;2023-03-25T05:31:42;1.20;;;1.10;;
8399;SDS011;4237;47.030;15.396;2023-03-25T05:34:13;2.30;;;1.90;;
8399;SDS011;4237;47.030;15.396;2023-03-25T05:36:42;3.07;;;1.80;;
8399;SDS011;4237;47.030;15.396;2023-03-25T05:39:11;3.00;;;2.10;;
8399;SDS011;4237;47.030;15.396;2023-03-25T05:41:40;2.43;;;2.00;;
8399;SDS011;4237;47.030;15.396;2023-03-25T05:44:10;2.17;;;1.90;;
8399;SDS011;4237;47.030;15.396;2023-03-25T05:46:40;2.50;;;2.03;;
8399;SDS011;4237;47.030;15.396;2023-03-25T05:49:10;3.10;;;1.80;;
8399;SDS011;4237;47.030;15.396;2023-03-25T05:51:38;5.57;;;1.47;;
8399;SDS011;4237;47.030;15.396;2023-03-25T05:54:07;5.33;;;1.70;;
8399;SDS011;4237;47.030;15.396;2023-03-25T05:56:36;2.63;;;2.43;;
8399;SDS011;4237;47.030;15.396;2023-03-25T05:59:05;3.13;;;1.60;;
8399;SDS011;4237;47.030;15.396;2023-03-25T06:01:36;1.87;;;1.40;;
8399;SDS011;4237;47.030;15.396;2023-03-25T06:04:04;2.70;;;1.20;;
8399;SDS011;4237;47.030;15.396;2023-03-25T06:06:35;2.27;;;1.10;;
8399;SDS011;4237;47.030;15.396;2023-03-25T06:09:03;4.87;;;3.30;;
8399;SDS011;4237;47.030;15.396;2023-03-25T06:11:32;9.13;;;4.33;;
8399;SDS011;4237;47.030;15.396;2023-03-25T06:14:03;6.30;;;3.83;;
8399;SDS011;4237;47.030;15.396;2023-03-25T06:16:33;8.87;;;4.03;;
8399;SDS011;4237;47.030;15.396;2023-03-25T06:19:02;8.37;;;4.23;;
8399;SDS011;4237;47.030;15.396;2023-03-25T06:21:31;5.93;;;3.40;;
8399;SDS011;4237;47.030;15.396;2023-03-25T06:24:00;4.80;;;3.70;;
8399;SDS011;4237;47.030;15.396;2023-03-25T06:26:29;3.63;;;3.20;;
8399;SDS011;4237;47.030;15.396;2023-03-25T06:28:58;8.00;;;4.60;;
8399;SDS011;4237;47.030;15.396;2023-03-25T06:31:28;6.70;;;4.13;;
8399;SDS011;4237;47.030;15.396;2023-03-25T06:33:58;6.00;;;3.80;;
8399;SDS011;4237;47.030;15.396;2023-03-25T06:36:27;10.37;;;4.07;;
8399;SDS011;4237;47.030;15.396;2023-03-25T06:38:57;5.40;;;3.27;;
8399;SDS011;4237;47.030;15.396;2023-03-25T06:41:25;5.33;;;2.90;;
8399;SDS011;4237;47.030;15.396;2023-03-25T06:43:54;3.87;;;2.77;;
8399;SDS011;4237;47.030;15.396;2023-03-25T06:46:23;5.37;;;2.60;;
8399;SDS011;4237;47.030;15.396;2023-03-25T06:48:51;4.23;;;2.50;;
8399;SDS011;4237;47.030;15.396;2023-03-25T06:51:20;3.13;;;2.47;;
8399;SDS011;4237;47.030;15.396;2023-03-25T06:53:49;4.50;;;2.67;;
8399;SDS011;4237;47.030;15.396;2023-03-25T06:56:18;7.13;;;2.67;;
8399;SDS011;4237;47.030;15.396;2023-03-25T06:58:46;3.20;;;2.43;;
8399;SDS011;4237;47.030;15.396;2023-03-25T07:01:15;4.50;;;2.20;;
8399;SDS011;4237;47.030;15.396;2023-03-25T07:03:44;2.23;;;2.03;;
8399;SDS011;4237;47.030;15.396;2023-03-25T07:06:16;2.17;;;1.97;;
8399;SDS011;4237;47.030;15.396;2023-03-25T07:08:47;3.00;;;2.10;;
8399;SDS011;4237;47.030;15.396;2023-03-25T07:11:18;3.57;;;1.90;;
8399;SDS011;4237;47.030;15.396;2023-03-25T07:13:48;4.13;;;2.70;;
8399;SDS011;4237;47.030;15.396;2023-03-25T07:16:19;6.77;;;2.53;;
8399;SDS011;4237;47.030;15.396;2023-03-25T07:18:49;2.97;;;2.50;;
8399;SDS011;4237;47.030;15.396;2023-03-25T07:21:17;3.80;;;2.57;;
8399;SDS011;4237;47.030;15.396;2023-03-25T07:23:46;4.23;;;2.63;;
8399;SDS011;4237;47.030;15.396;2023-03-25T07:26:15;3.10;;;2.30;;
8399;SDS011;4237;47.030;15.396;2023-03-25T07:28:44;2.87;;;2.17;;
8399;SDS011;4237;47.030;15.396;2023-03-25T07:31:14;2.50;;;1.93;;
8399;SDS011;4237;47.030;15.396;2023-03-25T07:33:43;3.87;;;1.57;;
8399;SDS011;4237;47.030;15.396;2023-03-25T07:36:12;2.83;;;1.80;;
8399;SDS011;4237;47.030;15.396;2023-03-25T07:38:41;3.43;;;1.50;;
8399;SDS011;4237;47.030;15.396;2023-03-25T07:41:10;2.43;;;1.60;;
8399;SDS011;4237;47.030;15.396;2023-03-25T07:43:40;1.10;;;1.00;;
8399;SDS011;4237;47.030;15.396;2023-03-25T07:46:09;1.77;;;1.00;;
8399;SDS011;4237;47.030;15.396;2023-03-25T07:48:37;1.47;;;1.33;;
8399;SDS011;4237;47.030;15.396;2023-03-25T07:51:07;1.97;;;1.50;;
8399;SDS011;4237;47.030;15.396;2023-03-25T07:53:35;1.63;;;1.17;;
8399;SDS011;4237;47.030;15.396;2023-03-25T07:56:06;1.53;;;1.00;;
8399;SDS011;4237;47.030;15.396;2023-03-25T07:58:35;1.23;;;1.10;;
8399;SDS011;4237;47.030;15.396;2023-03-25T08:01:04;1.20;;;1.10;;
8399;SDS011;4237;47.030;15.396;2023-03-25T08:03:33;1.50;;;1.30;;
8399;SDS011;4237;47.030;15.396;2023-03-25T08:06:04;2.67;;;1.80;;
8399;SDS011;4237;47.030;15.396;2023-03-25T08:08:33;2.00;;;1.70;;
8399;SDS011;4237;47.030;15.396;2023-03-25T08:11:02;2.13;;;1.90;;
8399;SDS011;4237;47.030;15.396;2023-03-25T08:13:32;4.30;;;2.73;;
8399;SDS011;4237;47.030;15.396;2023-03-25T08:16:00;3.03;;;2.07;;
8399;SDS011;4237;47.030;15.396;2023-03-25T08:18:29;2.73;;;1.87;;
8399;SDS011;4237;47.030;15.396;2023-03-25T08:20:58;3.17;;;1.60;;
8399;SDS011;4237;47.030;15.396;2023-03-25T08:23:27;1.93;;;1.47;;
8399;SDS011;4237;47.030;15.396;2023-03-25T08:25:55;3.80;;;1.53;;
8399;SDS011;4237;47.030;15.396;2023-03-25T08:28:24;1.90;;;1.50;;
8399;SDS011;4237;47.030;15.396;2023-03-25T08:30:53;1.60;;;1.30;;
8399;SDS011;4237;47.030;15.396;2023-03-25T08:33:22;5.17;;;1.23;;
8399;SDS011;4237;47.030;15.396;2023-03-25T08:35:55;2.13;;;1.30;;
8399;SDS011;4237;47.030;15.396;2023-03-25T08:38:24;1.90;;;1.30;;
8399;SDS011;4237;47.030;15.396;2023-03-25T08:40:55;3.23;;;1.27;;
8399;SDS011;4237;47.030;15.396;2023-03-25T08:43:27;2.93;;;1.03;;
8399;SDS011;4237;47.030;15.396;2023-03-25T08:45:55;2.60;;;1.33;;
8399;SDS011;4237;47.030;15.396;2023-03-25T08:48:24;4.50;;;1.50;;
8399;SDS011;4237;47.030;15.396;2023-03-25T08:50:52;4.07;;;1.40;;
8399;SDS011;4237;47.030;15.396;2023-03-25T08:53:21;1.90;;;1.40;;
8399;SDS011;4237;47.030;15.396;2023-03-25T08:55:51;4.17;;;1.50;;
8399;SDS011;4237;47.030;15.396;2023-03-25T08:58:21;4.63;;;1.40;;
8399;SDS011;4237;47.030;15.396;2023-03-25T09:00:51;8.70;;;1.83;;
8399;SDS011;4237;47.030;15.396;2023-03-25T09:03:22;4.90;;;1.57;;
8399;SDS011;4237;47.030;15.396;2023-03-25T09:05:53;2.20;;;1.60;;
8399;SDS011;4237;47.030;15.396;2023-03-25T09:08:21;3.37;;;1.50;;
8399;SDS011;4237;47.030;15.396;2023-03-25T09:10:50;1.53;;;1.37;;
8399;SDS011;4237;47.030;15.396;2023-03-25T09:13:20;2.73;;;1.70;;
8399;SDS011;4237;47.030;15.396;2023-03-25T09:15:49;2.20;;;1.43;;
8399;SDS011;4237;47.030;15.396;2023-03-25T09:18:18;3.47;;;1.70;;
8399;SDS011;4237;47.030;15.396;2023-03-25T09:20:47;5.67;;;1.80;;
8399;SDS011;4237;47.030;15.396;2023-03-25T09:23:17;1.37;;;1.07;;
8399;SDS011;4237;47.030;15.396;2023-03-25T09:25:46;2.03;;;1.20;;
8399;SDS011;4237;47.030;15.396;2023-03-25T09:28:14;2.13;;;1.23;;
8399;SDS011;4237;47.030;15.396;2023-03-25T09:30:43;2.63;;;1.10;;
8399;SDS011;4237;47.030;15.396;2023-03-25T09:33:11;2.67;;;1.67;;
8399;SDS011;4237;47.030;15.396;2023-03-25T09:35:40;1.30;;;1.10;;
8399;SDS011;4237;47.030;15.396;2023-03-25T09:38:08;5.70;;;1.57;;
8399;SDS011;4237;47.030;15.396;2023-03-25T09:40:40;3.47;;;1.80;;
8399;SDS011;4237;47.030;15.396;2023-03-25T09:45:55;3.00;;;1.43;;
8399;SDS011;4237;47.030;15.396;2023-03-25T09:51:08;1.73;;;1.20;;
8399;SDS011;4237;47.030;15.396;2023-03-25T09:56:45;0.90;;;0.90;;
8399;SDS011;4237;47.030;15.396;2023-03-25T09:59:16;1.53;;;0.90;;
8399;SDS011;4237;47.030;15.396;2023-03-25T10:01:58;1.93;;;1.10;;
8399;SDS011;4237;47.030;15.396;2023-03-25T10:26:28;2.07;;;1.30;;
8399;SDS011;4237;47.030;15.396;2023-03-25T10:28:59;4.37;;;1.20;;
8399;SDS011;4237;47.030;15.396;2023-03-25T10:31:30;2.27;;;1.20;;
8399;SDS011;4237;47.030;15.396;2023-03-25T10:34:03;1.80;;;1.17;;
8399;SDS011;4237;47.030;15.396;2023-03-25T10:36:33;0.87;;;0.77;;
8399;SDS011;4237;47.030;15.396;2023-03-25T10:39:05;2.80;;;1.33;;
8399;SDS011;4237;47.030;15.396;2023-03-25T10:41:39;0.97;;;0.90;;
8399;SDS011;4237;47.030;15.396;2023-03-25T10:44:09;5.60;;;1.10;;
8399;SDS011;4237;47.030;15.396;2023-03-25T10:46:43;1.93;;;1.10;;
8399;SDS011;4237;47.030;15.396;2023-03-25T10:49:26;6.43;;;3.53;;
8399;SDS011;4237;47.030;15.396;2023-03-25T10:51:56;3.03;;;1.00;;
8399;SDS011;4237;47.030;15.396;2023-03-25T10:54:32;5.60;;;3.83;;
8399;SDS011;4237;47.030;15.396;2023-03-25T10:57:04;1.23;;;0.80;;
8399;SDS011;4237;47.030;15.396;2023-03-25T10:59:36;1.60;;;1.23;;
8399;SDS011;4237;47.030;15.396;2023-03-25T11:02:23;3.73;;;1.87;;
8399;SDS011;4237;47.030;15.396;2023-03-25T11:04:51;1.07;;;0.60;;
8399;SDS011;4237;47.030;15.396;2023-03-25T11:07:27;1.90;;;0.77;;
8399;SDS011;4237;47.030;15.396;2023-03-25T11:11:00;0.70;;;0.50;;
8399;SDS011;4237;47.030;15.396;2023-03-25T11:12:39;0.73;;;0.73;;
8399;SDS011;4237;47.030;15.396;2023-03-25T11:15:14;1.00;;;0.80;;
8399;SDS011;4237;47.030;15.396;2023-03-25T11:18:10;1.00;;;0.60;;
8399;SDS011;4237;47.030;15.396;2023-03-25T11:20:45;2.20;;;0.90;;
8399;SDS011;4237;47.030;15.396;2023-03-25T11:23:20;3.57;;;1.40;;
8399;SDS011;4237;47.030;15.396;2023-03-25T11:25:51;0.70;;;0.63;;
8399;SDS011;4237;47.030;15.396;2023-03-25T11:28:23;1.60;;;0.43;;
8399;SDS011;4237;47.030;15.396;2023-03-25T11:34:04;1.53;;;0.73;;
8399;SDS011;4237;47.030;15.396;2023-03-25T11:36:46;1.47;;;0.77;;
8399;SDS011;4237;47.030;15.396;2023-03-25T11:44:51;3.27;;;1.00;;
8399;SDS011;4237;47.030;15.396;2023-03-25T11:47:25;1.37;;;1.10;;
8399;SDS011;4237;47.030;15.396;2023-03-25T11:49:56;1.30;;;0.90;;
8399;SDS011;4237;47.030;15.396;2023-03-25T11:52:26;0.73;;;0.70;;
8399;SDS011;4237;47.030;15.396;2023-03-25T11:54:57;0.97;;;0.57;;
8399;SDS011;4237;47.030;15.396;2023-03-25T11:57:37;1.13;;;0.80;;
8399;SDS011;4237;47.030;15.396;2023-03-25T12:00:01;1.33;;;0.70;;
8399;SDS011;4237;47.030;15.396;2023-03-25T12:02:36;5.47;;;0.93;;
8399;SDS011;4237;47.030;15.396;2023-03-25T12:05:11;0.73;;;0.40;;
8399;SDS011;4237;47.030;15.396;2023-03-25T12:07:44;0.70;;;0.60;;
8399;SDS011;4237;47.030;15.396;2023-03-25T12:10:19;3.23;;;0.80;;
8399;SDS011;4237;47.030;15.396;2023-03-25T12:12:59;1.23;;;0.53;;
8399;SDS011;4237;47.030;15.396;2023-03-25T12:15:50;3.03;;;1.20;;
8399;SDS011;4237;47.030;15.396;2023-03-25T12:21:19;2.30;;;0.77;;
8399;SDS011;4237;47.030;15.396;2023-03-25T12:26:39;2.17;;;0.70;;
8399;SDS011;4237;47.030;15.396;2023-03-25T12:29:25;1.87;;;0.60;;
8399;SDS011;4237;47.030;15.396;2023-03-25T12:37:59;0.97;;;0.73;;
8399;SDS011;4237;47.030;15.396;2023-03-25T12:40:46;2.93;;;0.83;;
8399;SDS011;4237;47.030;15.396;2023-03-25T12:46:06;1.60;;;0.63;;
8399;SDS011;4237;47.030;15.396;2023-03-25T12:51:16;0.93;;;0.60;;
8399;SDS011;4237;47.030;15.396;2023-03-25T12:53:47;2.30;;;1.03;;
8399;SDS011;4237;47.030;15.396;2023-03-25T13:07:33;0.97;;;0.77;;
8399;SDS011;4237;47.030;15.396;2023-03-25T13:10:24;1.33;;;1.00;;
8399;SDS011;4237;47.030;15.396;2023-03-25T13:12:47;2.10;;;0.70;;
8399;SDS011;4237;47.030;15.396;2023-03-25T13:18:13;0.77;;;0.57;;
8399;SDS011;4237;47.030;15.396;2023-03-25T13:20:48;1.93;;;0.80;;
8399;SDS011;4237;47.030;15.396;2023-03-25T13:23:21;2.27;;;0.70;;
8399;SDS011;4237;47.030;15.396;2023-03-25T13:26:07;1.67;;;0.57;;
8399;SDS011;4237;47.030;15.396;2023-03-25T13:28:43;0.57;;;0.57;;
8399;SDS011;4237;47.030;15.396;2023-03-25T13:31:22;0.70;;;0.60;;
8399;SDS011;4237;47.030;15.396;2023-03-25T13:36:41;1.60;;;0.73;;
8399;SDS011;4237;47.030;15.396;2023-03-25T13:39:21;0.50;;;0.50;;
8399;SDS011;4237;47.030;15.396;2023-03-25T13:41:59;0.77;;;0.47;;
8399;SDS011;4237;47.030;15.396;2023-03-25T13:44:35;1.90;;;1.57;;
8399;SDS011;4237;47.030;15.396;2023-03-25T13:47:14;0.90;;;0.77;;
8399;SDS011;4237;47.030;15.396;2023-03-25T13:50:04;4.10;;;0.73;;
8399;SDS011;4237;47.030;15.396;2023-03-25T13:52:36;1.37;;;0.90;;
8399;SDS011;4237;47.030;15.396;2023-03-25T13:55:11;0.60;;;0.60;;
8399;SDS011;4237;47.030;15.396;2023-03-25T14:00:46;2.77;;;0.73;;
8399;SDS011;4237;47.030;15.396;2023-03-25T14:03:34;0.70;;;0.60;;
8399;SDS011;4237;47.030;15.396;2023-03-25T14:08:52;1.70;;;0.50;;
8399;SDS011;4237;47.030;15.396;2023-03-25T14:11:28;2.00;;;0.53;;
8399;SDS011;4237;47.030;15.396;2023-03-25T14:14:17;1.17;;;0.50;;
8399;SDS011;4237;47.030;15.396;2023-03-25T14:16:49;1.67;;;0.63;;
8399;SDS011;4237;47.030;15.396;2023-03-25T14:19:23;1.60;;;0.80;;
8399;SDS011;4237;47.030;15.396;2023-03-25T14:21:54;1.17;;;0.73;;
8399;SDS011;4237;47.030;15.396;2023-03-25T14:24:26;0.97;;;0.53;;
8399;SDS011;4237;47.030;15.396;2023-03-25T14:27:03;0.97;;;0.63;;
8399;SDS011;4237;47.030;15.396;2023-03-25T14:29:41;0.63;;;0.60;;
8399;SDS011;4237;47.030;15.396;2023-03-25T14:34:47;0.83;;;0.53;;
8399;SDS011;4237;47.030;15.396;2023-03-25T14:39:50;1.37;;;0.60;;
8399;SDS011;4237;47.030;15.396;2023-03-25T14:44:52;2.03;;;0.67;;
8399;SDS011;4237;47.030;15.396;2023-03-25T14:47:25;1.13;;;0.60;;
8399;SDS011;4237;47.030;15.396;2023-03-25T14:52:57;2.30;;;0.73;;
8399;SDS011;4237;47.030;15.396;2023-03-25T14:55:30;1.43;;;0.90;;
8399;SDS011;4237;47.030;15.396;2023-03-25T14:58:04;2.63;;;1.90;;
8399;SDS011;4237;47.030;15.396;2023-03-25T15:00:48;2.53;;;1.97;;
8399;SDS011;4237;47.030;15.396;2023-03-25T15:03:15;1.00;;;0.73;;
8399;SDS011;4237;47.030;15.396;2023-03-25T15:05:53;2.47;;;0.60;;
8399;SDS011;4237;47.030;15.396;2023-03-25T15:08:34;1.20;;;0.60;;
8399;SDS011;4237;47.030;15.396;2023-03-25T15:11:07;0.97;;;0.70;;
8399;SDS011;4237;47.030;15.396;2023-03-25T15:13:58;1.27;;;0.50;;
8399;SDS011;4237;47.030;15.396;2023-03-25T15:19:05;1.90;;;0.70;;
8399;SDS011;4237;47.030;15.396;2023-03-25T15:24:33;2.00;;;0.50;;
8399;SDS011;4237;47.030;15.396;2023-03-25T15:35:34;2.70;;;0.83;;
8399;SDS011;4237;47.030;15.396;2023-03-25T15:46:49;1.53;;;0.70;;
8399;SDS011;4237;47.030;15.396;2023-03-25T15:55:16;0.60;;;0.47;;
8399;SDS011;4237;47.030;15.396;2023-03-25T15:57:53;3.33;;;1.27;;
8399;SDS011;4237;47.030;15.396;2023-03-25T16:00:22;1.10;;;0.80;;
8399;SDS011;4237;47.030;15.396;2023-03-25T16:02:56;1.07;;;0.70;;
8399;SDS011;4237;47.030;15.396;2023-03-25T16:05:28;8.83;;;0.93;;
8399;SDS011;4237;47.030;15.396;2023-03-25T16:08:03;0.57;;;0.57;;
8399;SDS011;4237;47.030;15.396;2023-03-25T16:10:33;0.73;;;0.60;;
8399;SDS011;4237;47.030;15.396;2023-03-25T16:13:03;2.30;;;0.60;;
8399;SDS011;4237;47.030;15.396;2023-03-25T16:15:34;1.17;;;0.60;;
8399;SDS011;4237;47.030;15.396;2023-03-25T16:18:05;5.43;;;0.80;;
8399;SDS011;4237;47.030;15.396;2023-03-25T16:20:36;1.20;;;0.70;;
8399;SDS011;4237;47.030;15.396;2023-03-25T16:23:05;3.23;;;0.53;;
8399;SDS011;4237;47.030;15.396;2023-03-25T16:25:39;1.63;;;0.90;;
8399;SDS011;4237;47.030;15.396;2023-03-25T16:28:43;1.10;;;0.90;;
8399;SDS011;4237;47.030;15.396;2023-03-25T16:30:50;0.80;;;0.60;;
8399;SDS011;4237;47.030;15.396;2023-03-25T16:33:26;2.00;;;0.97;;
8399;SDS011;4237;47.030;15.396;2023-03-25T16:36:05;6.07;;;0.83;;
8399;SDS011;4237;47.030;15.396;2023-03-25T16:38:38;1.10;;;0.50;;
8399;SDS011;4237;47.030;15.396;2023-03-25T16:41:12;1.47;;;0.50;;
8399;SDS011;4237;47.030;15.396;2023-03-25T16:43:39;2.00;;;0.77;;
8399;SDS011;4237;47.030;15.396;2023-03-25T16:46:09;1.53;;;1.03;;
8399;SDS011;4237;47.030;15.396;2023-03-25T16:48:48;2.03;;;0.93;;
8399;SDS011;4237;47.030;15.396;2023-03-25T16:53:54;2.17;;;1.17;;
8399;SDS011;4237;47.030;15.396;2023-03-25T16:56:30;6.50;;;2.40;;
8399;SDS011;4237;47.030;15.396;2023-03-25T16:59:05;3.80;;;2.30;;
8399;SDS011;4237;47.030;15.396;2023-03-25T17:01:36;6.07;;;2.40;;
8399;SDS011;4237;47.030;15.396;2023-03-25T17:04:20;4.87;;;2.30;;
8399;SDS011;4237;47.030;15.396;2023-03-25T17:06:55;4.33;;;1.70;;
8399;SDS011;4237;47.030;15.396;2023-03-25T17:09:25;1.40;;;1.30;;
8399;SDS011;4237;47.030;15.396;2023-03-25T17:11:58;2.00;;;0.93;;
8399;SDS011;4237;47.030;15.396;2023-03-25T17:14:30;1.47;;;0.90;;
8399;SDS011;4237;47.030;15.396;2023-03-25T17:17:18;1.40;;;0.90;;
8399;SDS011;4237;47.030;15.396;2023-03-25T17:19:43;4.67;;;1.10;;
8399;SDS011;4237;47.030;15.396;2023-03-25T17:22:24;1.73;;;1.30;;
8399;SDS011;4237;47.030;15.396;2023-03-25T17:24:56;1.97;;;1.10;;
8399;SDS011;4237;47.030;15.396;2023-03-25T17:27:31;1.10;;;0.70;;
8399;SDS011;4237;47.030;15.396;2023-03-25T17:30:18;0.93;;;0.77;;
8399;SDS011;4237;47.030;15.396;2023-03-25T17:32:51;2.53;;;0.43;;
8399;SDS011;4237;47.030;15.396;2023-03-25T17:35:25;0.93;;;0.40;;
8399;SDS011;4237;47.030;15.396;2023-03-25T17:37:56;1.40;;;0.60;;
8399;SDS011;4237;47.030;15.396;2023-03-25T17:40:26;3.53;;;0.90;;
8399;SDS011;4237;47.030;15.396;2023-03-25T17:42:57;1.47;;;0.73;;
8399;SDS011;4237;47.030;15.396;2023-03-25T17:45:26;1.97;;;0.80;;
8399;SDS011;4237;47.030;15.396;2023-03-25T17:47:56;1.43;;;1.30;;
8399;SDS011;4237;47.030;15.396;2023-03-25T17:50:26;1.67;;;0.90;;
8399;SDS011;4237;47.030;15.396;2023-03-25T17:52:56;3.70;;;1.17;;
8399;SDS011;4237;47.030;15.396;2023-03-25T17:55:26;3.93;;;1.60;;
8399;SDS011;4237;47.030;15.396;2023-03-25T17:57:55;0.70;;;0.70;;
8399;SDS011;4237;47.030;15.396;2023-03-25T18:00:25;1.27;;;0.73;;
8399;SDS011;4237;47.030;15.396;2023-03-25T18:02:54;1.03;;;0.93;;